Time;durP1;ratioP1;P1;durP2;ratioP2;P2;SDS_P1;SDS_P2;PMS_P1;PMS_P2;Temp;Humidity;BMP_temperature;BMP_pressure;BME280_temperature;BME280_humidity;BME280_pressure;Samples;Min_cycle;Max_cycle;Signal;HPM_P1;HPM_P2
2023/10/27 00:00:37;;;;;;;14.48;5.05;;;15.40;99.90;;;;;;4956842;28;20039;-70
2023/10/27 00:03:03;;;;;;;16.40;5.53;;;15.40;99.90;;;;;;4956620;28;20037;-69
2023/10/27 00:05:29;;;;;;;11.73;4.88;;;15.40;99.90;;;;;;4957006;29;20388;-71
2023/10/27 00:07:55;;;;;;;11.68;5.10;;;15.40;99.90;;;;;;4957003;29;20479;-69
2023/10/27 00:10:20;;;;;;;12.38;5.03;;;15.40;99.90;;;;;;4956709;29;20027;-70
2023/10/27 00:12:46;;;;;;;13.45;3.67;;;15.40;99.90;;;;;;4956793;28;20030;-70
2023/10/27 00:15:11;;;;;;;13.07;4.65;;;15.40;99.90;;;;;;4956902;29;20034;-70
2023/10/27 00:17:37;;;;;;;13.68;4.35;;;15.40;99.90;;;;;;4956288;29;20026;-69
2023/10/27 00:20:03;;;;;;;9.35;3.90;;;15.40;99.90;;;;;;4956642;29;20543;-69
2023/10/27 00:22:28;;;;;;;10.35;3.97;;;15.40;99.90;;;;;;4956537;29;20028;-70
2023/10/27 00:24:54;;;;;;;12.45;4.03;;;15.40;99.90;;;;;;4956669;28;20098;-69
2023/10/27 00:27:22;;;;;;;14.02;4.00;;;15.40;99.90;;;;;;4956622;29;20024;-69
2023/10/27 00:29:48;;;;;;;11.20;3.95;;;15.40;99.90;;;;;;4956433;29;20027;-69
2023/10/27 00:32:13;;;;;;;14.27;5.15;;;15.40;99.90;;;;;;4955928;29;20031;-69
2023/10/27 00:34:39;;;;;;;9.77;4.05;;;15.40;99.90;;;;;;4956399;29;20374;-69
2023/10/27 00:37:05;;;;;;;16.30;4.25;;;15.40;99.90;;;;;;4956409;29;20380;-70
2023/10/27 00:39:30;;;;;;;14.70;4.38;;;15.40;99.90;;;;;;4956205;29;20484;-69
2023/10/27 00:41:56;;;;;;;11.68;3.67;;;15.40;99.90;;;;;;4956374;28;20460;-69
2023/10/27 00:44:22;;;;;;;13.45;3.67;;;15.40;99.90;;;;;;4956427;28;20027;-68
2023/10/27 00:46:49;;;;;;;11.95;3.58;;;15.40;99.90;;;;;;4956001;29;20039;-70
2023/10/27 00:49:15;;;;;;;10.25;3.90;;;15.40;99.90;;;;;;4956383;29;20023;-69
2023/10/27 00:51:41;;;;;;;16.05;4.40;;;15.40;99.90;;;;;;4956157;29;20086;-69
2023/10/27 00:54:08;;;;;;;12.98;4.80;;;15.40;99.90;;;;;;4955994;28;20023;-69
2023/10/27 00:56:35;;;;;;;17.75;4.70;;;15.40;99.90;;;;;;4956090;28;20042;-70
2023/10/27 00:59:02;;;;;;;13.00;3.80;;;15.40;99.90;;;;;;4955837;28;20089;-69
2023/10/27 01:01:28;;;;;;;12.95;3.67;;;15.40;99.90;;;;;;4955629;28;20451;-71
2023/10/27 01:03:55;;;;;;;11.77;3.97;;;15.40;99.90;;;;;;4955462;28;20627;-70
2023/10/27 01:06:22;;;;;;;13.13;3.95;;;15.40;99.90;;;;;;4955970;28;20031;-69
2023/10/27 01:08:48;;;;;;;14.45;4.68;;;15.40;99.90;;;;;;4955684;29;20019;-68
2023/10/27 01:11:14;;;;;;;12.55;4.18;;;15.40;99.90;;;;;;4955783;29;20027;-69
2023/10/27 01:13:39;;;;;;;14.73;4.32;;;15.40;99.90;;;;;;4955954;28;20034;-69
2023/10/27 01:16:05;;;;;;;15.32;4.40;;;15.40;99.90;;;;;;4955671;28;20019;-70
2023/10/27 01:18:31;;;;;;;8.50;4.00;;;15.30;99.90;;;;;;4955469;29;20377;-70
2023/10/27 01:20:56;;;;;;;14.77;4.40;;;15.30;99.90;;;;;;4955660;28;20030;-69
2023/10/27 01:23:22;;;;;;;13.32;4.78;;;15.40;99.90;;;;;;4955612;29;20119;-69
2023/10/27 01:25:47;;;;;;;14.23;4.78;;;15.30;99.90;;;;;;4955585;29;20058;-69
2023/10/27 01:28:13;;;;;;;13.60;4.68;;;15.30;99.90;;;;;;4955629;29;20027;-69
2023/10/27 01:30:38;;;;;;;13.00;5.03;;;15.30;99.90;;;;;;4955079;29;20030;-69
2023/10/27 01:33:04;;;;;;;9.88;5.07;;;15.30;99.90;;;;;;4955132;29;20079;-68
2023/10/27 01:35:29;;;;;;;9.45;4.55;;;15.30;99.90;;;;;;4955493;29;20087;-68
2023/10/27 01:37:55;;;;;;;9.27;5.15;;;15.30;99.90;;;;;;4955318;29;20039;-69
2023/10/27 01:40:21;;;;;;;11.65;4.78;;;15.30;99.90;;;;;;4955695;28;20031;-69
2023/10/27 01:42:46;;;;;;;8.68;4.22;;;15.30;99.90;;;;;;4953422;28;20019;-69
2023/10/27 01:45:13;;;;;;;10.13;4.63;;;15.30;99.90;;;;;;4953772;28;20023;-69
2023/10/27 01:47:39;;;;;;;10.95;4.40;;;15.30;99.90;;;;;;4955413;28;20027;-70
2023/10/27 01:50:06;;;;;;;10.13;4.13;;;15.30;99.90;;;;;;4955123;28;20034;-70
2023/10/27 01:52:31;;;;;;;7.90;4.50;;;15.30;99.90;;;;;;4955215;28;20031;-70
2023/10/27 01:54:57;;;;;;;9.85;4.53;;;15.30;99.90;;;;;;4955058;28;20027;-68
2023/10/27 01:57:24;;;;;;;11.45;4.55;;;15.30;99.90;;;;;;4955202;28;20027;-69
2023/10/27 01:59:50;;;;;;;10.88;5.47;;;15.30;99.90;;;;;;4969548;28;20392;-69
2023/10/27 02:02:16;;;;;;;9.90;4.55;;;15.30;99.90;;;;;;4955527;28;20054;-68
2023/10/27 02:04:42;;;;;;;9.00;4.68;;;15.30;99.90;;;;;;4954988;28;20031;-69
2023/10/27 02:07:08;;;;;;;8.30;4.68;;;15.30;99.90;;;;;;4955106;28;20031;-69
2023/10/27 02:09:34;;;;;;;9.25;5.18;;;15.30;99.90;;;;;;4954938;28;20027;-69
2023/10/27 02:11:59;;;;;;;9.90;4.95;;;15.30;99.90;;;;;;4955093;28;20066;-68
2023/10/27 02:14:25;;;;;;;10.93;5.13;;;15.30;99.90;;;;;;4953508;28;20027;-69
2023/10/27 02:16:51;;;;;;;8.10;4.43;;;15.30;99.90;;;;;;4957590;28;20027;-68
2023/10/27 02:19:17;;;;;;;8.55;4.40;;;15.30;99.90;;;;;;4958763;28;20059;-69
2023/10/27 02:21:42;;;;;;;7.95;4.70;;;15.30;99.90;;;;;;4958646;28;20027;-69
2023/10/27 02:24:08;;;;;;;8.30;4.60;;;15.30;99.90;;;;;;4958805;28;20031;-69
2023/10/27 02:26:35;;;;;;;7.55;4.30;;;15.30;99.90;;;;;;4958805;28;20030;-69
2023/10/27 02:29:01;;;;;;;8.32;4.53;;;15.20;99.90;;;;;;4958231;28;20012;-69
2023/10/27 02:31:26;;;;;;;10.05;5.22;;;15.30;99.90;;;;;;4956392;28;20078;-70
2023/10/27 02:33:52;;;;;;;10.07;4.70;;;15.30;99.90;;;;;;4958703;28;20097;-69
2023/10/27 02:36:18;;;;;;;8.07;4.95;;;15.30;99.90;;;;;;4958431;28;20027;-69
2023/10/27 02:38:43;;;;;;;7.47;4.93;;;15.30;99.90;;;;;;4958514;28;20488;-70
2023/10/27 02:41:10;;;;;;;9.32;5.07;;;15.30;99.90;;;;;;4958543;28;20027;-69
2023/10/27 02:43:37;;;;;;;6.53;4.28;;;15.20;99.90;;;;;;4958153;28;20024;-70
2023/10/27 02:46:04;;;;;;;8.73;5.25;;;15.30;99.90;;;;;;4958437;28;20168;-70
2023/10/27 02:48:31;;;;;;;10.00;5.22;;;15.30;99.90;;;;;;4958377;28;20050;-69
2023/10/27 02:50:57;;;;;;;10.15;4.82;;;15.20;99.90;;;;;;4958255;28;20023;-69
2023/10/27 02:53:22;;;;;;;10.18;4.85;;;15.20;99.90;;;;;;4958636;28;20031;-69
2023/10/27 02:55:48;;;;;;;7.95;4.47;;;15.20;99.90;;;;;;4958191;28;20097;-69
2023/10/27 02:58:14;;;;;;;7.65;4.35;;;15.20;99.90;;;;;;4958048;28;20024;-69
2023/10/27 03:00:41;;;;;;;11.73;4.53;;;15.20;99.90;;;;;;4958065;28;20038;-69
2023/10/27 03:03:06;;;;;;;9.05;4.88;;;15.20;99.90;;;;;;4958410;28;20027;-68
2023/10/27 03:05:32;;;;;;;9.38;4.57;;;15.20;99.90;;;;;;4958021;28;20376;-70
2023/10/27 03:07:57;;;;;;;7.78;4.70;;;15.20;99.90;;;;;;4958131;28;20473;-69
2023/10/27 03:10:23;;;;;;;9.65;5.00;;;15.30;99.90;;;;;;4957987;28;20027;-70
2023/10/27 03:12:49;;;;;;;9.10;4.60;;;15.20;99.90;;;;;;4957614;28;20024;-69
2023/10/27 03:15:14;;;;;;;7.78;4.70;;;15.20;99.90;;;;;;4957537;28;20035;-70
2023/10/27 03:17:40;;;;;;;7.57;5.28;;;15.20;99.90;;;;;;4957654;28;20020;-71
2023/10/27 03:20:07;;;;;;;8.05;4.72;;;15.20;99.90;;;;;;4957395;28;20031;-68
2023/10/27 03:22:32;;;;;;;7.63;5.15;;;15.20;99.90;;;;;;4957981;28;20102;-68
2023/10/27 03:24:58;;;;;;;10.20;5.70;;;15.20;99.90;;;;;;4957817;28;20540;-69
2023/10/27 03:27:24;;;;;;;13.02;6.20;;;15.20;99.90;;;;;;4957061;28;20377;-69
2023/10/27 03:29:50;;;;;;;10.40;5.70;;;15.20;99.90;;;;;;4957516;28;20541;-68
2023/10/27 03:32:16;;;;;;;11.52;6.47;;;15.20;99.90;;;;;;4957293;28;20031;-69
2023/10/27 03:34:43;;;;;;;10.73;5.88;;;15.20;99.90;;;;;;4957552;28;20500;-69
2023/10/27 03:37:09;;;;;;;12.63;6.53;;;15.20;99.90;;;;;;4957387;28;20027;-68
2023/10/27 03:39:35;;;;;;;15.63;6.78;;;15.20;99.90;;;;;;4957132;28;20039;-68
2023/10/27 03:42:01;;;;;;;12.52;6.15;;;15.20;99.90;;;;;;4957443;28;20473;-70
2023/10/27 03:44:26;;;;;;;11.35;6.32;;;15.20;99.90;;;;;;4957445;28;20543;-69
2023/10/27 03:46:52;;;;;;;13.10;5.63;;;15.20;99.90;;;;;;4957046;28;20023;-69
2023/10/27 03:49:18;;;;;;;11.15;5.88;;;15.20;99.90;;;;;;4957381;28;20019;-69
2023/10/27 03:51:43;;;;;;;10.20;6.15;;;15.20;99.90;;;;;;4957148;28;20027;-69
2023/10/27 03:54:09;;;;;;;11.63;5.95;;;15.20;99.90;;;;;;4957045;28;20035;-70
2023/10/27 03:56:35;;;;;;;11.10;6.15;;;15.20;99.90;;;;;;4957150;28;20031;-69
2023/10/27 03:59:00;;;;;;;14.73;6.70;;;15.20;99.90;;;;;;4957184;28;20039;-68
2023/10/27 04:01:29;;;;;;;13.40;6.90;;;15.20;99.90;;;;;;4956889;28;20023;-71
2023/10/27 04:03:55;;;;;;;11.95;6.18;;;15.20;99.90;;;;;;4957096;28;20038;-71
2023/10/27 04:06:21;;;;;;;13.80;7.20;;;15.10;99.90;;;;;;4957153;28;20031;-69
2023/10/27 04:08:47;;;;;;;14.52;6.90;;;15.20;99.90;;;;;;4956734;28;20027;-69
2023/10/27 04:11:13;;;;;;;14.75;7.15;;;15.10;99.90;;;;;;4956720;28;20070;-71
2023/10/27 04:13:39;;;;;;;13.07;7.70;;;15.10;99.90;;;;;;4956967;28;20392;-69
2023/10/27 04:16:05;;;;;;;11.23;6.90;;;15.10;99.90;;;;;;4956844;28;20033;-70
2023/10/27 04:18:31;;;;;;;13.60;7.22;;;15.10;99.90;;;;;;4956600;28;20114;-71
2023/10/27 04:20:57;;;;;;;14.63;7.53;;;15.10;99.90;;;;;;4955266;28;20119;-69
2023/10/27 04:23:22;;;;;;;13.80;7.50;;;15.10;99.90;;;;;;4956383;28;20032;-68
2023/10/27 04:25:48;;;;;;;12.43;6.75;;;15.10;99.90;;;;;;4955443;28;20023;-71
2023/10/27 04:28:14;;;;;;;14.50;6.78;;;15.10;99.90;;;;;;4956533;28;20027;-71
2023/10/27 04:30:40;;;;;;;12.48;6.90;;;15.10;99.90;;;;;;4956347;28;20034;-70
2023/10/27 04:33:05;;;;;;;14.82;7.53;;;15.10;99.90;;;;;;4956284;28;20035;-71
2023/10/27 04:35:34;;;;;;;12.43;6.60;;;15.10;99.90;;;;;;4956476;28;20042;-68
2023/10/27 04:38:00;;;;;;;12.50;6.60;;;15.10;99.90;;;;;;4955576;28;20023;-72
2023/10/27 04:40:28;;;;;;;13.48;7.22;;;15.10;99.90;;;;;;4956107;28;20034;-70
2023/10/27 04:42:56;;;;;;;12.43;6.22;;;15.10;99.90;;;;;;4956288;28;20051;-72
2023/10/27 04:45:21;;;;;;;12.23;6.85;;;15.10;99.90;;;;;;4956242;28;20396;-69
2023/10/27 04:47:47;;;;;;;12.77;7.05;;;15.10;99.90;;;;;;4956191;28;20026;-69
2023/10/27 04:50:13;;;;;;;11.55;6.60;;;15.10;99.90;;;;;;4956114;28;20035;-70
2023/10/27 04:52:39;;;;;;;13.25;6.78;;;15.10;99.90;;;;;;4955890;28;20019;-72
2023/10/27 04:55:06;;;;;;;12.35;6.22;;;15.00;99.90;;;;;;4956124;28;20027;-71
2023/10/27 04:57:32;;;;;;;12.23;6.95;;;15.00;99.90;;;;;;4956004;28;20074;-72
2023/10/27 04:59:58;;;;;;;13.40;6.95;;;15.10;99.90;;;;;;4955949;28;20071;-71
2023/10/27 05:02:24;;;;;;;8.45;5.90;;;15.10;99.90;;;;;;4955722;28;20553;-72
2023/10/27 05:04:49;;;;;;;9.07;6.60;;;15.10;99.90;;;;;;4955932;28;20110;-70
2023/10/27 05:07:15;;;;;;;11.80;7.25;;;15.10;99.90;;;;;;4955492;28;20030;-72
2023/10/27 05:09:40;;;;;;;8.57;6.32;;;15.20;99.90;;;;;;4955757;28;20027;-72
2023/10/27 05:12:06;;;;;;;10.93;5.82;;;15.10;99.90;;;;;;4955769;28;20058;-71
2023/10/27 05:14:34;;;;;;;12.38;5.97;;;15.10;99.90;;;;;;4955739;28;20035;-71
2023/10/27 05:17:01;;;;;;;9.98;6.20;;;15.10;99.90;;;;;;4954648;28;20027;-70
2023/10/27 05:19:31;;;;;;;10.25;6.32;;;15.10;99.90;;;;;;4954028;28;20031;-70
2023/10/27 05:21:57;;;;;;;14.75;6.63;;;15.10;99.90;;;;;;4955335;29;20031;-69
2023/10/27 05:24:22;;;;;;;10.20;6.75;;;15.10;99.90;;;;;;4955048;29;20488;-68
2023/10/27 05:26:49;;;;;;;10.57;6.68;;;15.10;99.90;;;;;;4956240;28;20031;-69
2023/10/27 05:29:15;;;;;;;12.02;6.50;;;15.10;99.90;;;;;;4955629;28;20035;-69
2023/10/27 05:31:42;;;;;;;11.85;7.18;;;15.10;99.90;;;;;;4955135;28;20035;-68
2023/10/27 05:34:08;;;;;;;9.90;7.63;;;15.10;99.90;;;;;;4955291;28;20392;-68
2023/10/27 05:36:35;;;;;;;13.18;7.68;;;15.10;99.90;;;;;;4955249;28;20015;-70
2023/10/27 05:39:01;;;;;;;11.07;8.38;;;15.10;99.90;;;;;;4956580;28;20039;-69
2023/10/27 05:41:26;;;;;;;11.40;8.55;;;15.10;99.90;;;;;;4955967;28;20027;-70
2023/10/27 05:43:54;;;;;;;11.02;7.28;;;15.10;99.90;;;;;;4953953;28;20102;-70
2023/10/27 05:46:23;;;;;;;11.27;7.90;;;15.10;99.90;;;;;;4955054;28;20377;-72
2023/10/27 05:48:49;;;;;;;10.93;7.45;;;15.10;99.90;;;;;;4954176;28;20042;-72
2023/10/27 05:51:15;;;;;;;11.25;7.60;;;15.00;99.90;;;;;;4953479;28;20024;-71
2023/10/27 05:53:41;;;;;;;8.75;5.65;;;15.00;99.90;;;;;;4956038;28;20481;-70
2023/10/27 05:56:07;;;;;;;8.27;5.65;;;15.10;99.90;;;;;;4953675;28;20019;-75
2023/10/27 05:58:35;;;;;;;9.65;7.70;;;15.10;99.90;;;;;;4947630;28;20043;-69
2023/10/27 06:01:01;;;;;;;11.70;7.07;;;15.00;99.90;;;;;;4948204;28;20035;-70
2023/10/27 06:03:27;;;;;;;9.23;6.60;;;15.00;99.90;;;;;;4950108;28;20043;-69
2023/10/27 06:05:52;;;;;;;10.10;6.22;;;15.00;99.90;;;;;;4945441;28;20432;-70
2023/10/27 06:08:19;;;;;;;11.85;7.03;;;15.00;99.90;;;;;;4953095;28;20042;-69
2023/10/27 06:10:45;;;;;;;10.93;7.57;;;15.00;99.90;;;;;;4940415;28;20102;-66
2023/10/27 06:13:12;;;;;;;9.73;7.97;;;15.00;99.90;;;;;;4951727;28;20073;-68
2023/10/27 06:15:37;;;;;;;8.85;6.85;;;15.00;99.90;;;;;;4951085;28;20075;-67
2023/10/27 06:18:03;;;;;;;11.15;8.13;;;15.00;99.90;;;;;;4951428;28;20085;-71
2023/10/27 06:20:29;;;;;;;9.43;6.60;;;15.00;99.90;;;;;;4942267;28;20023;-72
2023/10/27 06:22:55;;;;;;;8.13;5.28;;;15.00;99.90;;;;;;4951928;28;20047;-71
2023/10/27 06:25:25;;;;;;;5.53;3.85;;;15.10;99.90;;;;;;4942973;28;20151;-72
2023/10/27 06:27:54;;;;;;;8.38;3.88;;;15.20;99.90;;;;;;4958493;28;20019;-73
2023/10/27 06:30:20;;;;;;;6.30;3.78;;;15.20;99.90;;;;;;4949369;28;20024;-72
2023/10/27 06:32:47;;;;;;;7.47;3.35;;;15.30;99.90;;;;;;4955869;28;20075;-72
2023/10/27 06:35:12;;;;;;;4.38;2.78;;;15.30;99.90;;;;;;4955280;28;20547;-73
2023/10/27 06:37:38;;;;;;;5.05;3.40;;;15.30;99.90;;;;;;4943993;28;20023;-69
2023/10/27 06:40:05;;;;;;;9.38;4.32;;;15.30;99.90;;;;;;4948125;28;20451;-70
2023/10/27 06:42:31;;;;;;;9.93;5.82;;;15.30;99.90;;;;;;4943884;28;20457;-72
2023/10/27 06:44:56;;;;;;;8.07;4.70;;;15.30;99.90;;;;;;4947311;28;20098;-73
2023/10/27 06:47:22;;;;;;;10.07;6.78;;;15.30;99.90;;;;;;4950630;28;20464;-71
2023/10/27 06:49:47;;;;;;;9.18;6.18;;;15.20;99.90;;;;;;4950393;28;20408;-73
2023/10/27 06:52:13;;;;;;;12.20;6.25;;;15.20;99.90;;;;;;4951447;28;20111;-73
2023/10/27 06:54:40;;;;;;;9.30;6.10;;;15.20;99.90;;;;;;4951633;28;20019;-72
2023/10/27 06:57:07;;;;;;;11.07;5.88;;;15.10;99.90;;;;;;4950817;28;20090;-71
2023/10/27 06:59:32;;;;;;;8.52;5.45;;;15.10;99.90;;;;;;4953282;28;20031;-73
2023/10/27 07:01:58;;;;;;;9.32;5.47;;;15.10;99.90;;;;;;4951717;28;20346;-73
2023/10/27 07:04:24;;;;;;;7.65;5.30;;;15.10;99.90;;;;;;4955173;28;20419;-74
2023/10/27 07:06:49;;;;;;;8.52;4.25;;;15.10;99.90;;;;;;4955603;28;20039;-72
2023/10/27 07:09:15;;;;;;;8.25;4.47;;;15.00;99.90;;;;;;4953395;28;20486;-73
2023/10/27 07:11:41;;;;;;;10.57;4.72;;;15.00;99.90;;;;;;4955528;28;20055;-70
2023/10/27 07:14:06;;;;;;;8.52;2.80;;;15.10;99.90;;;;;;4954810;28;20032;-69
2023/10/27 07:16:32;;;;;;;9.95;4.05;;;15.10;99.90;;;;;;4957813;28;20115;-72
2023/10/27 07:18:57;;;;;;;7.47;3.45;;;15.10;99.90;;;;;;4957312;28;20473;-73
2023/10/27 07:21:23;;;;;;;10.32;3.45;;;15.10;99.90;;;;;;4957583;28;20055;-72
2023/10/27 07:23:49;;;;;;;5.18;2.53;;;15.10;99.90;;;;;;4956394;28;20036;-69
2023/10/27 07:26:15;;;;;;;10.30;3.88;;;15.10;99.90;;;;;;4957383;28;20043;-70
2023/10/27 07:28:42;;;;;;;5.95;2.80;;;15.20;99.90;;;;;;4961504;28;20030;-69
2023/10/27 07:31:10;;;;;;;9.80;3.17;;;15.10;99.90;;;;;;4954980;29;20028;-71
2023/10/27 07:33:38;;;;;;;7.18;2.17;;;15.10;99.90;;;;;;4957002;28;20047;-70
2023/10/27 07:36:05;;;;;;;6.70;2.70;;;15.10;99.90;;;;;;4966576;28;20062;-71
2023/10/27 07:38:31;;;;;;;5.90;3.05;;;15.20;99.90;;;;;;4972363;28;20495;-69
2023/10/27 07:40:57;;;;;;;6.32;2.67;;;15.20;99.90;;;;;;4957238;28;20037;-69
2023/10/27 07:43:24;;;;;;;4.90;2.67;;;15.20;99.90;;;;;;4972186;28;20428;-71
2023/10/27 07:45:49;;;;;;;6.72;1.75;;;15.20;99.90;;;;;;4968376;28;20023;-70
2023/10/27 07:48:15;;;;;;;6.45;3.15;;;15.20;99.90;;;;;;4960037;28;20372;-70
2023/10/27 07:50:42;;;;;;;5.13;2.95;;;15.20;99.90;;;;;;4957082;29;20453;-69
2023/10/27 07:53:08;;;;;;;8.20;3.33;;;15.20;99.90;;;;;;4956908;29;20023;-70
2023/10/27 07:55:35;;;;;;;8.65;3.70;;;15.10;99.90;;;;;;4972453;28;20086;-69
2023/10/27 07:58:01;;;;;;;10.20;3.75;;;15.10;99.90;;;;;;4976316;28;20437;-70
2023/10/27 08:00:26;;;;;;;5.95;2.80;;;15.10;99.90;;;;;;4963459;28;20062;-70
2023/10/27 08:02:52;;;;;;;6.57;2.78;;;15.10;99.90;;;;;;4956824;28;20038;-70
2023/10/27 08:05:18;;;;;;;8.60;3.30;;;15.10;99.90;;;;;;4957045;28;20053;-70
2023/10/27 08:07:45;;;;;;;9.43;3.60;;;15.10;99.90;;;;;;4955668;28;20158;-70
2023/10/27 08:10:11;;;;;;;7.25;3.22;;;15.10;99.90;;;;;;4956775;28;20476;-71
2023/10/27 08:12:37;;;;;;;6.20;3.05;;;15.10;99.90;;;;;;4955138;28;20051;-70
2023/10/27 08:15:06;;;;;;;5.13;2.45;;;15.10;99.90;;;;;;4955861;28;20039;-71
2023/10/27 08:17:33;;;;;;;4.80;1.98;;;15.20;99.90;;;;;;4960101;28;20522;-72
2023/10/27 08:19:59;;;;;;;3.80;2.28;;;15.30;99.90;;;;;;4975916;28;20039;-71
2023/10/27 08:22:24;;;;;;;6.15;2.20;;;15.30;99.90;;;;;;4962634;28;20023;-69
2023/10/27 08:24:50;;;;;;;4.47;2.38;;;15.30;99.90;;;;;;4968312;28;20110;-70
2023/10/27 08:27:16;;;;;;;7.57;1.92;;;15.20;99.90;;;;;;4956213;28;20028;-71
2023/10/27 08:29:42;;;;;;;6.43;1.90;;;15.30;99.90;;;;;;4956377;28;20019;-70
2023/10/27 08:32:08;;;;;;;5.45;2.13;;;15.30;99.90;;;;;;4960499;28;20043;-71
2023/10/27 08:34:35;;;;;;;4.90;2.05;;;15.30;99.90;;;;;;4956751;28;20036;-70
2023/10/27 08:37:00;;;;;;;4.90;1.60;;;15.30;99.90;;;;;;4953542;28;20046;-72
2023/10/27 08:39:27;;;;;;;6.43;2.13;;;15.40;99.90;;;;;;4950481;28;20035;-70
2023/10/27 08:41:53;;;;;;;5.28;1.80;;;15.30;99.90;;;;;;4946492;28;20451;-71
2023/10/27 08:44:20;;;;;;;5.90;1.42;;;15.40;99.90;;;;;;4943973;28;20488;-72
2023/10/27 08:46:46;;;;;;;7.60;1.88;;;15.40;99.90;;;;;;4951220;28;20035;-71
2023/10/27 08:49:12;;;;;;;7.60;1.90;;;15.40;99.90;;;;;;4952546;28;20027;-72
2023/10/27 08:51:39;;;;;;;6.45;1.48;;;15.40;99.90;;;;;;4951022;28;20049;-69
2023/10/27 08:54:06;;;;;;;7.10;1.42;;;15.50;99.90;;;;;;4949700;28;20336;-69
2023/10/27 08:56:32;;;;;;;11.60;1.73;;;15.40;99.90;;;;;;4951454;28;20019;-70
2023/10/27 08:58:58;;;;;;;4.72;1.52;;;15.40;99.90;;;;;;4950557;28;20118;-68
2023/10/27 09:01:26;;;;;;;5.10;1.65;;;15.50;99.90;;;;;;4950196;28;20030;-68
2023/10/27 09:04:12;;;;;;;4.20;1.35;;;15.50;99.90;;;;;;4951338;28;20073;-70
2023/10/27 09:06:39;;;;;;;5.53;1.60;;;15.50;99.90;;;;;;4945644;28;20443;-71
2023/10/27 09:09:07;;;;;;;4.13;0.88;;;15.50;99.90;;;;;;4953263;28;20078;-69
2023/10/27 09:11:43;;;;;;;4.43;1.20;;;15.50;99.90;;;;;;4944644;28;20601;-69
2023/10/27 09:14:30;;;;;;;5.18;1.40;;;15.60;99.90;;;;;;4948831;28;20106;-70
2023/10/27 09:17:06;;;;;;;4.70;1.25;;;15.60;99.90;;;;;;4948726;28;20456;-70
2023/10/27 09:19:32;;;;;;;5.88;1.50;;;15.60;99.90;;;;;;4952204;28;20038;-69
2023/10/27 09:21:58;;;;;;;4.50;0.95;;;15.60;99.90;;;;;;4948747;28;20034;-71
2023/10/27 09:24:26;;;;;;;4.28;1.30;;;15.60;99.90;;;;;;4944145;28;20019;-67
2023/10/27 09:26:53;;;;;;;3.40;1.55;;;15.60;99.90;;;;;;4954761;28;20089;-68
2023/10/27 09:29:19;;;;;;;5.78;1.20;;;15.60;99.90;;;;;;4952276;28;20050;-67
2023/10/27 09:31:45;;;;;;;4.53;1.08;;;15.60;99.90;;;;;;4950920;28;20502;-70
2023/10/27 09:34:24;;;;;;;4.10;1.48;;;15.60;99.90;;;;;;4951013;28;20046;-69
2023/10/27 09:36:58;;;;;;;3.78;1.17;;;15.70;99.90;;;;;;4944665;28;20118;-71
2023/10/27 09:39:25;;;;;;;3.75;1.13;;;15.60;99.90;;;;;;4951445;28;20035;-70
2023/10/27 09:42:11;;;;;;;4.70;1.20;;;15.60;99.90;;;;;;4942545;28;20038;-67
2023/10/27 09:44:48;;;;;;;7.88;1.33;;;15.70;99.90;;;;;;4952162;28;20070;-67
2023/10/27 09:47:22;;;;;;;3.55;1.23;;;15.70;99.90;;;;;;4946438;28;20043;-69
2023/10/27 09:49:57;;;;;;;4.28;1.10;;;15.60;99.90;;;;;;4945084;28;20668;-69
2023/10/27 09:52:28;;;;;;;5.20;1.20;;;15.60;99.90;;;;;;4946931;28;20023;-69
2023/10/27 09:54:58;;;;;;;6.68;1.30;;;15.60;99.90;;;;;;4944395;28;20027;-70
2023/10/27 09:57:25;;;;;;;5.88;1.60;;;15.70;99.90;;;;;;4947911;28;20034;-68
2023/10/27 09:59:54;;;;;;;5.32;1.50;;;15.60;99.90;;;;;;4943327;28;20156;-68
2023/10/27 10:02:23;;;;;;;4.25;1.77;;;15.60;99.90;;;;;;4929220;28;20555;-67
2023/10/27 10:04:51;;;;;;;5.18;1.83;;;15.60;99.90;;;;;;4932722;28;20036;-67
2023/10/27 10:07:38;;;;;;;4.80;1.65;;;15.60;99.90;;;;;;4930836;28;20039;-66
2023/10/27 10:10:29;;;;;;;8.57;1.70;;;15.70;99.90;;;;;;4929133;28;21723;-65
2023/10/27 10:13:14;;;;;;;5.10;1.88;;;15.70;99.90;;;;;;4947347;28;20058;-68
2023/10/27 10:15:44;;;;;;;4.40;1.70;;;15.60;99.90;;;;;;4944288;28;20023;-65
2023/10/27 10:18:25;;;;;;;3.00;1.45;;;15.70;99.90;;;;;;4947904;29;20039;-67
2023/10/27 10:20:52;;;;;;;6.25;1.38;;;15.70;99.90;;;;;;4945206;28;20035;-65
2023/10/27 10:23:19;;;;;;;5.32;1.88;;;15.60;99.90;;;;;;4944702;28;20109;-70
2023/10/27 10:25:55;;;;;;;4.53;1.80;;;15.70;99.90;;;;;;4950323;28;20019;-69
2023/10/27 10:28:34;;;;;;;4.85;1.40;;;15.70;99.90;;;;;;4952129;28;20049;-70
2023/10/27 10:31:06;;;;;;;5.38;2.13;;;15.70;99.90;;;;;;4960756;28;20480;-70
2023/10/27 10:33:34;;;;;;;5.97;2.35;;;15.70;99.90;;;;;;4951258;28;20154;-69
2023/10/27 10:36:32;;;;;;;5.40;1.70;;;15.70;99.90;;;;;;4951960;28;20505;-69
2023/10/27 10:38:59;;;;;;;3.72;1.42;;;15.70;99.90;;;;;;4955969;29;20058;-70
2023/10/27 10:42:01;;;;;;;5.25;1.35;;;15.70;99.90;;;;;;4956076;28;20034;-71
2023/10/27 10:44:28;;;;;;;5.10;1.73;;;15.70;99.90;;;;;;4955320;28;20042;-70
2023/10/27 10:46:54;;;;;;;4.55;2.10;;;15.60;99.90;;;;;;4955746;28;20035;-71
2023/10/27 10:49:24;;;;;;;5.43;2.60;;;15.70;99.90;;;;;;4956873;28;20031;-70
2023/10/27 10:51:54;;;;;;;6.93;2.60;;;15.70;99.90;;;;;;4951999;28;20055;-71
2023/10/27 10:54:28;;;;;;;5.68;2.03;;;15.70;99.90;;;;;;4954809;28;20118;-70
2023/10/27 10:57:08;;;;;;;4.60;1.63;;;15.70;99.90;;;;;;4954689;28;20019;-70
2023/10/27 10:59:33;;;;;;;5.25;2.20;;;15.70;99.90;;;;;;4954951;28;20035;-71
2023/10/27 11:02:00;;;;;;;4.63;1.92;;;15.70;99.90;;;;;;4956102;28;20038;-72
2023/10/27 11:04:30;;;;;;;5.40;2.33;;;15.70;99.90;;;;;;4950886;28;20067;-69
2023/10/27 11:07:00;;;;;;;6.68;1.88;;;15.70;99.90;;;;;;4951079;29;20035;-71
2023/10/27 11:09:27;;;;;;;6.88;2.20;;;15.70;99.90;;;;;;4952186;29;20043;-69
2023/10/27 11:11:54;;;;;;;8.18;3.25;;;15.70;99.90;;;;;;4953743;28;20073;-70
2023/10/27 11:14:20;;;;;;;6.32;3.00;;;15.70;99.90;;;;;;4953257;28;20386;-71
2023/10/27 11:16:58;;;;;;;6.60;3.00;;;15.70;99.90;;;;;;4956228;28;20495;-72
2023/10/27 11:19:23;;;;;;;5.97;2.40;;;15.70;99.90;;;;;;4952279;28;20042;-71
2023/10/27 11:21:56;;;;;;;5.85;2.90;;;15.70;99.90;;;;;;4951967;28;20027;-73
2023/10/27 11:24:23;;;;;;;6.65;3.03;;;15.70;99.90;;;;;;4955261;28;20106;-72
2023/10/27 11:26:49;;;;;;;10.50;3.88;;;15.70;99.90;;;;;;4952071;28;20059;-72
2023/10/27 11:29:14;;;;;;;8.05;3.03;;;15.70;99.90;;;;;;4953456;28;20070;-73
2023/10/27 11:31:41;;;;;;;8.60;2.92;;;15.70;99.90;;;;;;4954673;28;20452;-73
2023/10/27 11:34:07;;;;;;;9.35;3.75;;;15.70;99.90;;;;;;4955598;28;20113;-73
2023/10/27 11:36:39;;;;;;;10.45;3.28;;;15.70;99.90;;;;;;4953132;28;20024;-73
2023/10/27 11:39:25;;;;;;;12.90;3.83;;;15.70;99.90;;;;;;4952564;28;20038;-72
2023/10/27 11:41:51;;;;;;;6.25;2.70;;;15.70;99.90;;;;;;4951150;28;20122;-72
2023/10/27 11:44:17;;;;;;;10.43;3.30;;;15.70;99.90;;;;;;4954928;28;20027;-72
2023/10/27 11:46:46;;;;;;;10.07;3.10;;;15.70;99.90;;;;;;4949267;28;20085;-70
2023/10/27 11:49:13;;;;;;;5.28;2.88;;;15.70;99.90;;;;;;4955550;28;20081;-70
2023/10/27 11:51:38;;;;;;;9.25;3.85;;;15.80;99.90;;;;;;4953370;29;20039;-70
2023/10/27 11:54:04;;;;;;;8.73;3.15;;;15.80;99.90;;;;;;4953303;28;20453;-70
2023/10/27 11:56:30;;;;;;;10.75;4.15;;;15.80;99.90;;;;;;4952302;28;20074;-70
2023/10/27 11:58:55;;;;;;;9.48;2.75;;;15.80;99.90;;;;;;4950009;28;20094;-71
2023/10/27 12:01:21;;;;;;;7.97;3.10;;;15.80;99.90;;;;;;4950872;28;20038;-72
2023/10/27 12:03:46;;;;;;;11.35;2.72;;;15.90;99.90;;;;;;4954062;28;20132;-69
2023/10/27 12:06:12;;;;;;;6.70;2.90;;;15.90;99.90;;;;;;4952184;28;20106;-72
2023/10/27 12:08:38;;;;;;;10.50;3.17;;;15.90;99.90;;;;;;4954353;29;20027;-72
2023/10/27 12:11:03;;;;;;;8.15;2.38;;;15.90;99.90;;;;;;4952726;28;20063;-74
2023/10/27 12:13:29;;;;;;;6.28;2.53;;;16.00;99.90;;;;;;4954022;28;20030;-72
2023/10/27 12:15:55;;;;;;;9.23;2.63;;;15.90;99.90;;;;;;4952258;28;20113;-69
2023/10/27 12:18:21;;;;;;;7.47;2.47;;;16.00;99.90;;;;;;4954058;29;20453;-68
2023/10/27 12:20:47;;;;;;;6.82;2.60;;;16.00;99.90;;;;;;4954167;28;20380;-69
2023/10/27 12:23:12;;;;;;;6.00;2.42;;;16.00;99.90;;;;;;4953538;28;20019;-71
2023/10/27 12:25:40;;;;;;;7.82;2.03;;;16.00;99.90;;;;;;4952906;28;20777;-69
2023/10/27 12:28:07;;;;;;;6.60;2.63;;;16.00;99.90;;;;;;4954516;29;20027;-69
2023/10/27 12:30:33;;;;;;;10.18;2.70;;;16.10;99.90;;;;;;4952936;28;20049;-69
2023/10/27 12:32:58;;;;;;;4.35;1.90;;;16.10;99.90;;;;;;4955488;28;20042;-69
2023/10/27 12:35:27;;;;;;;5.25;1.90;;;16.10;99.90;;;;;;4953292;28;20142;-68
2023/10/27 12:37:55;;;;;;;7.47;2.22;;;16.10;99.90;;;;;;4954880;28;20485;-68
2023/10/27 12:40:22;;;;;;;8.38;1.88;;;16.10;99.90;;;;;;4952927;28;20031;-69
2023/10/27 12:42:48;;;;;;;6.03;1.50;;;16.20;99.90;;;;;;4954077;28;20031;-71